sensor_id;sensor_type;location;lat;lon;timestamp;temperature;humidity
21275;DHT22;36472;52.170;20.884;2023-06-01T00:00:44;29.10;37.40
21275;DHT22;36472;52.170;20.884;2023-06-01T00:03:34;29.20;37.50
21275;DHT22;36472;52.170;20.884;2023-06-01T00:06:04;29.10;37.30
21275;DHT22;36472;52.170;20.884;2023-06-01T00:08:35;29.10;37.40
21275;DHT22;36472;52.170;20.884;2023-06-01T00:11:04;29.10;37.30
21275;DHT22;36472;52.170;20.884;2023-06-01T00:13:33;29.00;37.40
21275;DHT22;36472;52.170;20.884;2023-06-01T00:16:03;29.00;37.40
21275;DHT22;36472;52.170;20.884;2023-06-01T00:18:32;29.00;37.50
21275;DHT22;36472;52.170;20.884;2023-06-01T00:21:01;28.90;37.50
21275;DHT22;36472;52.170;20.884;2023-06-01T00:23:30;28.90;37.50
21275;DHT22;36472;52.170;20.884;2023-06-01T00:26:00;28.90;37.50
21275;DHT22;36472;52.170;20.884;2023-06-01T00:28:30;28.90;37.60
21275;DHT22;36472;52.170;20.884;2023-06-01T00:30:59;28.80;37.70
21275;DHT22;36472;52.170;20.884;2023-06-01T00:33:29;28.80;37.70
21275;DHT22;36472;52.170;20.884;2023-06-01T00:35:57;28.80;38.00
21275;DHT22;36472;52.170;20.884;2023-06-01T00:38:27;28.80;38.10
21275;DHT22;36472;52.170;20.884;2023-06-01T00:40:55;28.80;38.20
21275;DHT22;36472;52.170;20.884;2023-06-01T00:43:26;28.80;38.30
21275;DHT22;36472;52.170;20.884;2023-06-01T00:45:55;28.70;38.40
21275;DHT22;36472;52.170;20.884;2023-06-01T00:48:24;28.70;38.30
21275;DHT22;36472;52.170;20.884;2023-06-01T00:50:53;28.70;38.20
21275;DHT22;36472;52.170;20.884;2023-06-01T00:53:24;28.70;38.00
21275;DHT22;36472;52.170;20.884;2023-06-01T00:55:54;28.70;37.80
21275;DHT22;36472;52.170;20.884;2023-06-01T00:58:23;28.70;37.80
21275;DHT22;36472;52.170;20.884;2023-06-01T01:00:54;28.60;37.80
21275;DHT22;36472;52.170;20.884;2023-06-01T01:03:23;28.60;37.90
21275;DHT22;36472;52.170;20.884;2023-06-01T01:06:01;28.60;38.00
21275;DHT22;36472;52.170;20.884;2023-06-01T01:08:46;28.60;38.20
21275;DHT22;36472;52.170;20.884;2023-06-01T01:11:29;28.60;38.10
21275;DHT22;36472;52.170;20.884;2023-06-01T01:14:03;28.50;38.10
21275;DHT22;36472;52.170;20.884;2023-06-01T01:16:42;28.50;38.00
21275;DHT22;36472;52.170;20.884;2023-06-01T01:19:29;28.50;38.20
21275;DHT22;36472;52.170;20.884;2023-06-01T01:22:25;28.50;38.90
21275;DHT22;36472;52.170;20.884;2023-06-01T01:25:21;28.50;38.20
21275;DHT22;36472;52.170;20.884;2023-06-01T01:28:10;28.50;38.10
21275;DHT22;36472;52.170;20.884;2023-06-01T01:30:59;28.40;37.90
21275;DHT22;36472;52.170;20.884;2023-06-01T01:33:32;28.50;38.60
21275;DHT22;36472;52.170;20.884;2023-06-01T01:36:02;28.40;37.50
21275;DHT22;36472;52.170;20.884;2023-06-01T01:38:34;28.30;37.50
21275;DHT22;36472;52.170;20.884;2023-06-01T01:41:04;28.30;37.50
21275;DHT22;36472;52.170;20.884;2023-06-01T01:43:35;28.30;37.60
21275;DHT22;36472;52.170;20.884;2023-06-01T01:46:13;28.30;37.60
21275;DHT22;36472;52.170;20.884;2023-06-01T01:48:54;28.30;37.60
21275;DHT22;36472;52.170;20.884;2023-06-01T01:51:36;28.30;37.60
21275;DHT22;36472;52.170;20.884;2023-06-01T01:54:09;28.30;37.40
21275;DHT22;36472;52.170;20.884;2023-06-01T01:56:39;28.30;37.50
21275;DHT22;36472;52.170;20.884;2023-06-01T01:59:10;28.20;37.50
21275;DHT22;36472;52.170;20.884;2023-06-01T02:01:40;28.20;37.90
21275;DHT22;36472;52.170;20.884;2023-06-01T02:04:13;28.20;38.00
21275;DHT22;36472;52.170;20.884;2023-06-01T02:06:42;28.20;37.90
21275;DHT22;36472;52.170;20.884;2023-06-01T02:09:12;28.20;37.90
21275;DHT22;36472;52.170;20.884;2023-06-01T02:11:42;28.20;38.00
21275;DHT22;36472;52.170;20.884;2023-06-01T02:14:13;28.20;38.10
21275;DHT22;36472;52.170;20.884;2023-06-01T02:16:42;28.10;37.90
21275;DHT22;36472;52.170;20.884;2023-06-01T02:19:13;28.10;37.80
21275;DHT22;36472;52.170;20.884;2023-06-01T02:21:43;28.10;37.80
21275;DHT22;36472;52.170;20.884;2023-06-01T02:24:12;28.10;37.90
21275;DHT22;36472;52.170;20.884;2023-06-01T02:26:41;28.10;38.00
21275;DHT22;36472;52.170;20.884;2023-06-01T02:29:13;28.10;38.10
21275;DHT22;36472;52.170;20.884;2023-06-01T02:31:43;28.10;38.00
21275;DHT22;36472;52.170;20.884;2023-06-01T02:34:12;28.10;37.80
21275;DHT22;36472;52.170;20.884;2023-06-01T02:36:41;28.10;37.80
21275;DHT22;36472;52.170;20.884;2023-06-01T02:39:10;28.00;38.40
21275;DHT22;36472;52.170;20.884;2023-06-01T02:41:40;28.00;38.70
21275;DHT22;36472;52.170;20.884;2023-06-01T02:44:08;28.00;38.90
21275;DHT22;36472;52.170;20.884;2023-06-01T02:46:39;28.00;38.70
21275;DHT22;36472;52.170;20.884;2023-06-01T02:49:08;28.00;38.70
21275;DHT22;36472;52.170;20.884;2023-06-01T02:51:37;28.00;38.50
21275;DHT22;36472;52.170;20.884;2023-06-01T02:54:15;28.00;38.40
21275;DHT22;36472;52.170;20.884;2023-06-01T02:56:44;28.00;38.70
21275;DHT22;36472;52.170;20.884;2023-06-01T02:59:16;28.00;38.30
21275;DHT22;36472;52.170;20.884;2023-06-01T03:01:51;28.00;38.20
21275;DHT22;36472;52.170;20.884;2023-06-01T03:04:21;28.00;38.30
21275;DHT22;36472;52.170;20.884;2023-06-01T03:06:50;28.00;38.20
21275;DHT22;36472;52.170;20.884;2023-06-01T03:09:29;28.00;38.30
21275;DHT22;36472;52.170;20.884;2023-06-01T03:12:08;28.00;38.70
21275;DHT22;36472;52.170;20.884;2023-06-01T03:14:37;28.00;38.80
21275;DHT22;36472;52.170;20.884;2023-06-01T03:17:09;28.00;38.70
21275;DHT22;36472;52.170;20.884;2023-06-01T03:19:37;28.10;38.80
21275;DHT22;36472;52.170;20.884;2023-06-01T03:22:16;28.10;38.60
21275;DHT22;36472;52.170;20.884;2023-06-01T03:24:45;28.10;39.00
21275;DHT22;36472;52.170;20.884;2023-06-01T03:27:20;28.10;39.00
21275;DHT22;36472;52.170;20.884;2023-06-01T03:29:49;28.20;39.00
21275;DHT22;36472;52.170;20.884;2023-06-01T03:32:20;28.20;39.00
21275;DHT22;36472;52.170;20.884;2023-06-01T03:34:51;28.20;39.10
21275;DHT22;36472;52.170;20.884;2023-06-01T03:37:21;28.30;39.10
21275;DHT22;36472;52.170;20.884;2023-06-01T03:39:50;28.30;39.10
21275;DHT22;36472;52.170;20.884;2023-06-01T03:42:20;28.40;39.20
21275;DHT22;36472;52.170;20.884;2023-06-01T03:44:49;28.40;39.10
21275;DHT22;36472;52.170;20.884;2023-06-01T03:47:20;28.50;38.90
21275;DHT22;36472;52.170;20.884;2023-06-01T03:49:49;28.50;38.80
21275;DHT22;36472;52.170;20.884;2023-06-01T03:52:18;28.60;38.90
21275;DHT22;36472;52.170;20.884;2023-06-01T03:54:47;28.60;39.00
21275;DHT22;36472;52.170;20.884;2023-06-01T03:57:40;28.60;39.00
21275;DHT22;36472;52.170;20.884;2023-06-01T04:00:09;28.70;39.10
21275;DHT22;36472;52.170;20.884;2023-06-01T04:02:55;28.80;39.20
21275;DHT22;36472;52.170;20.884;2023-06-01T04:05:26;28.90;39.10
21275;DHT22;36472;52.170;20.884;2023-06-01T04:07:56;28.90;39.00
21275;DHT22;36472;52.170;20.884;2023-06-01T04:10:25;29.00;39.10
21275;DHT22;36472;52.170;20.884;2023-06-01T04:12:55;29.10;38.70
21275;DHT22;36472;52.170;20.884;2023-06-01T04:15:26;29.20;38.80
21275;DHT22;36472;52.170;20.884;2023-06-01T04:17:58;29.30;38.80
21275;DHT22;36472;52.170;20.884;2023-06-01T04:20:36;29.30;38.60
21275;DHT22;36472;52.170;20.884;2023-06-01T04:23:06;29.50;38.60
21275;DHT22;36472;52.170;20.884;2023-06-01T04:25:34;29.50;38.20
21275;DHT22;36472;52.170;20.884;2023-06-01T04:28:03;29.60;38.10
21275;DHT22;36472;52.170;20.884;2023-06-01T04:30:33;29.80;38.30
21275;DHT22;36472;52.170;20.884;2023-06-01T04:33:04;29.90;37.90
21275;DHT22;36472;52.170;20.884;2023-06-01T04:35:35;30.00;37.50
21275;DHT22;36472;52.170;20.884;2023-06-01T04:38:05;30.10;37.40
21275;DHT22;36472;52.170;20.884;2023-06-01T04:40:34;30.30;37.90
21275;DHT22;36472;52.170;20.884;2023-06-01T04:43:03;30.40;36.70
21275;DHT22;36472;52.170;20.884;2023-06-01T04:45:34;30.50;36.40
21275;DHT22;36472;52.170;20.884;2023-06-01T04:48:07;30.60;36.90
21275;DHT22;36472;52.170;20.884;2023-06-01T04:50:47;30.80;36.70
21275;DHT22;36472;52.170;20.884;2023-06-01T04:53:17;30.90;36.30
21275;DHT22;36472;52.170;20.884;2023-06-01T04:55:48;31.00;36.20
21275;DHT22;36472;52.170;20.884;2023-06-01T04:58:17;31.10;35.80
21275;DHT22;36472;52.170;20.884;2023-06-01T05:00:46;31.20;36.00
21275;DHT22;36472;52.170;20.884;2023-06-01T05:03:17;31.30;35.90
21275;DHT22;36472;52.170;20.884;2023-06-01T05:05:46;31.40;35.40
21275;DHT22;36472;52.170;20.884;2023-06-01T05:08:15;31.50;35.50
21275;DHT22;36472;52.170;20.884;2023-06-01T05:10:44;31.60;35.20
21275;DHT22;36472;52.170;20.884;2023-06-01T05:13:13;31.60;34.80
21275;DHT22;36472;52.170;20.884;2023-06-01T05:15:42;31.80;35.00
21275;DHT22;36472;52.170;20.884;2023-06-01T05:18:12;31.80;34.60
21275;DHT22;36472;52.170;20.884;2023-06-01T05:20:42;31.90;34.60
21275;DHT22;36472;52.170;20.884;2023-06-01T05:23:11;32.00;34.60
21275;DHT22;36472;52.170;20.884;2023-06-01T05:25:40;32.00;35.40
21275;DHT22;36472;52.170;20.884;2023-06-01T05:28:09;32.10;34.50
21275;DHT22;36472;52.170;20.884;2023-06-01T05:30:39;32.20;34.70
21275;DHT22;36472;52.170;20.884;2023-06-01T05:33:09;32.30;34.60
21275;DHT22;36472;52.170;20.884;2023-06-01T05:35:38;32.40;34.60
21275;DHT22;36472;52.170;20.884;2023-06-01T05:38:13;32.40;34.90
21275;DHT22;36472;52.170;20.884;2023-06-01T05:40:42;32.60;33.70
21275;DHT22;36472;52.170;20.884;2023-06-01T05:43:11;32.70;33.50
21275;DHT22;36472;52.170;20.884;2023-06-01T05:45:40;32.80;33.20
21275;DHT22;36472;52.170;20.884;2023-06-01T05:48:09;32.90;33.50
21275;DHT22;36472;52.170;20.884;2023-06-01T05:50:42;33.10;33.10
21275;DHT22;36472;52.170;20.884;2023-06-01T05:53:13;33.20;33.40
21275;DHT22;36472;52.170;20.884;2023-06-01T05:55:42;33.40;33.60
21275;DHT22;36472;52.170;20.884;2023-06-01T05:58:11;33.60;33.20
21275;DHT22;36472;52.170;20.884;2023-06-01T06:00:41;33.70;32.80
21275;DHT22;36472;52.170;20.884;2023-06-01T06:03:10;33.80;32.70
21275;DHT22;36472;52.170;20.884;2023-06-01T06:05:39;34.00;32.60
21275;DHT22;36472;52.170;20.884;2023-06-01T06:08:08;34.10;32.20
21275;DHT22;36472;52.170;20.884;2023-06-01T06:10:39;34.20;32.60
21275;DHT22;36472;52.170;20.884;2023-06-01T06:13:10;34.30;32.20
21275;DHT22;36472;52.170;20.884;2023-06-01T06:15:39;34.40;32.40
21275;DHT22;36472;52.170;20.884;2023-06-01T06:18:08;34.60;32.30
21275;DHT22;36472;52.170;20.884;2023-06-01T06:20:37;34.60;31.20
21275;DHT22;36472;52.170;20.884;2023-06-01T06:23:06;34.70;31.20
21275;DHT22;36472;52.170;20.884;2023-06-01T06:25:35;34.80;31.00
21275;DHT22;36472;52.170;20.884;2023-06-01T06:28:09;34.80;31.00
21275;DHT22;36472;52.170;20.884;2023-06-01T06:30:39;34.90;30.30
21275;DHT22;36472;52.170;20.884;2023-06-01T06:33:08;34.90;31.00
21275;DHT22;36472;52.170;20.884;2023-06-01T06:35:42;35.00;30.80
21275;DHT22;36472;52.170;20.884;2023-06-01T06:38:12;35.10;30.50
21275;DHT22;36472;52.170;20.884;2023-06-01T06:40:41;35.10;30.10
21275;DHT22;36472;52.170;20.884;2023-06-01T06:43:12;35.20;30.00
21275;DHT22;36472;52.170;20.884;2023-06-01T06:45:42;35.30;30.20
21275;DHT22;36472;52.170;20.884;2023-06-01T06:48:11;35.30;30.40
21275;DHT22;36472;52.170;20.884;2023-06-01T06:50:40;35.40;30.60
21275;DHT22;36472;52.170;20.884;2023-06-01T06:53:11;35.40;30.40
21275;DHT22;36472;52.170;20.884;2023-06-01T06:55:40;35.50;30.60
21275;DHT22;36472;52.170;20.884;2023-06-01T06:58:11;35.50;30.10
21275;DHT22;36472;52.170;20.884;2023-06-01T07:00:41;35.60;30.10
21275;DHT22;36472;52.170;20.884;2023-06-01T07:03:10;35.60;30.30
21275;DHT22;36472;52.170;20.884;2023-06-01T07:05:40;35.70;30.80
21275;DHT22;36472;52.170;20.884;2023-06-01T07:08:09;35.70;30.60
21275;DHT22;36472;52.170;20.884;2023-06-01T07:10:37;35.80;30.60
21275;DHT22;36472;52.170;20.884;2023-06-01T07:13:06;35.80;30.30
21275;DHT22;36472;52.170;20.884;2023-06-01T07:15:37;35.90;30.60
21275;DHT22;36472;52.170;20.884;2023-06-01T07:18:06;35.90;30.10
21275;DHT22;36472;52.170;20.884;2023-06-01T07:20:35;35.90;30.10
21275;DHT22;36472;52.170;20.884;2023-06-01T07:23:04;36.00;30.50
21275;DHT22;36472;52.170;20.884;2023-06-01T07:25:33;36.10;30.30
21275;DHT22;36472;52.170;20.884;2023-06-01T07:28:02;36.10;30.50
21275;DHT22;36472;52.170;20.884;2023-06-01T07:30:35;36.20;30.30
21275;DHT22;36472;52.170;20.884;2023-06-01T07:33:05;36.20;29.80
21275;DHT22;36472;52.170;20.884;2023-06-01T07:35:35;36.30;30.00
21275;DHT22;36472;52.170;20.884;2023-06-01T07:38:04;36.30;29.80
21275;DHT22;36472;52.170;20.884;2023-06-01T07:40:35;36.30;30.20
21275;DHT22;36472;52.170;20.884;2023-06-01T07:43:04;36.40;29.80
21275;DHT22;36472;52.170;20.884;2023-06-01T07:45:32;36.40;30.40
21275;DHT22;36472;52.170;20.884;2023-06-01T07:48:03;36.40;29.50
21275;DHT22;36472;52.170;20.884;2023-06-01T07:50:35;36.50;29.80
21275;DHT22;36472;52.170;20.884;2023-06-01T07:53:05;36.50;29.00
21275;DHT22;36472;52.170;20.884;2023-06-01T07:55:33;36.50;29.60
21275;DHT22;36472;52.170;20.884;2023-06-01T07:58:03;36.50;29.70
21275;DHT22;36472;52.170;20.884;2023-06-01T08:00:32;36.60;29.80
21275;DHT22;36472;52.170;20.884;2023-06-01T08:03:03;36.60;29.60
21275;DHT22;36472;52.170;20.884;2023-06-01T08:05:34;36.70;29.70
21275;DHT22;36472;52.170;20.884;2023-06-01T08:08:06;36.80;29.00
21275;DHT22;36472;52.170;20.884;2023-06-01T08:10:35;36.80;28.80
21275;DHT22;36472;52.170;20.884;2023-06-01T08:13:06;36.80;28.50
21275;DHT22;36472;52.170;20.884;2023-06-01T08:15:36;36.90;28.60
21275;DHT22;36472;52.170;20.884;2023-06-01T08:18:07;36.80;27.70
21275;DHT22;36472;52.170;20.884;2023-06-01T08:20:36;36.80;27.70
21275;DHT22;36472;52.170;20.884;2023-06-01T08:23:05;36.80;28.20
21275;DHT22;36472;52.170;20.884;2023-06-01T08:25:33;36.80;28.20
21275;DHT22;36472;52.170;20.884;2023-06-01T08:28:03;36.80;28.20
21275;DHT22;36472;52.170;20.884;2023-06-01T08:30:32;36.80;27.90
21275;DHT22;36472;52.170;20.884;2023-06-01T08:33:01;36.90;28.20
21275;DHT22;36472;52.170;20.884;2023-06-01T08:35:32;36.90;28.80
21275;DHT22;36472;52.170;20.884;2023-06-01T08:38:02;36.90;28.50
21275;DHT22;36472;52.170;20.884;2023-06-01T08:40:31;36.90;28.80
21275;DHT22;36472;52.170;20.884;2023-06-01T08:43:07;37.00;28.30
21275;DHT22;36472;52.170;20.884;2023-06-01T08:45:41;37.00;28.10
21275;DHT22;36472;52.170;20.884;2023-06-01T08:48:15;37.10;28.70
21275;DHT22;36472;52.170;20.884;2023-06-01T08:50:49;37.10;28.30
21275;DHT22;36472;52.170;20.884;2023-06-01T08:53:21;37.20;28.40
21275;DHT22;36472;52.170;20.884;2023-06-01T08:55:51;37.20;28.70
21275;DHT22;36472;52.170;20.884;2023-06-01T08:58:21;37.20;27.90
21275;DHT22;36472;52.170;20.884;2023-06-01T09:00:50;37.30;28.40
21275;DHT22;36472;52.170;20.884;2023-06-01T09:03:21;37.30;28.20
21275;DHT22;36472;52.170;20.884;2023-06-01T09:05:52;37.20;28.20
21275;DHT22;36472;52.170;20.884;2023-06-01T09:08:23;37.30;28.30
21275;DHT22;36472;52.170;20.884;2023-06-01T09:10:52;37.30;28.30
21275;DHT22;36472;52.170;20.884;2023-06-01T09:13:32;37.30;28.80
21275;DHT22;36472;52.170;20.884;2023-06-01T09:16:02;37.30;28.50
21275;DHT22;36472;52.170;20.884;2023-06-01T09:18:31;37.30;28.60
21275;DHT22;36472;52.170;20.884;2023-06-01T09:21:14;37.30;28.50
21275;DHT22;36472;52.170;20.884;2023-06-01T09:23:44;37.40;29.30
21275;DHT22;36472;52.170;20.884;2023-06-01T09:26:14;37.40;29.20
21275;DHT22;36472;52.170;20.884;2023-06-01T09:28:54;37.50;29.20
21275;DHT22;36472;52.170;20.884;2023-06-01T09:31:38;37.50;28.70
21275;DHT22;36472;52.170;20.884;2023-06-01T09:34:10;37.50;29.50
21275;DHT22;36472;52.170;20.884;2023-06-01T09:36:41;37.60;29.10
21275;DHT22;36472;52.170;20.884;2023-06-01T09:39:12;37.70;28.70
21275;DHT22;36472;52.170;20.884;2023-06-01T09:41:49;37.80;28.80
21275;DHT22;36472;52.170;20.884;2023-06-01T09:44:25;37.90;28.70
21275;DHT22;36472;52.170;20.884;2023-06-01T09:46:56;37.90;29.30
21275;DHT22;36472;52.170;20.884;2023-06-01T09:49:27;38.00;29.10
21275;DHT22;36472;52.170;20.884;2023-06-01T09:52:11;38.10;28.70
21275;DHT22;36472;52.170;20.884;2023-06-01T09:54:44;38.20;29.80
21275;DHT22;36472;52.170;20.884;2023-06-01T09:57:20;38.20;29.40
21275;DHT22;36472;52.170;20.884;2023-06-01T09:59:51;38.30;30.00
21275;DHT22;36472;52.170;20.884;2023-06-01T10:02:21;38.40;28.80
21275;DHT22;36472;52.170;20.884;2023-06-01T10:04:53;38.60;28.90
21275;DHT22;36472;52.170;20.884;2023-06-01T10:07:28;38.70;28.70
21275;DHT22;36472;52.170;20.884;2023-06-01T10:09:59;38.70;28.00
21275;DHT22;36472;52.170;20.884;2023-06-01T10:12:31;38.80;28.30
21275;DHT22;36472;52.170;20.884;2023-06-01T10:15:02;38.80;28.40
21275;DHT22;36472;52.170;20.884;2023-06-01T10:17:49;38.90;28.00
21275;DHT22;36472;52.170;20.884;2023-06-01T10:20:18;39.00;28.10
21275;DHT22;36472;52.170;20.884;2023-06-01T10:22:48;39.10;27.90
21275;DHT22;36472;52.170;20.884;2023-06-01T10:25:21;39.20;27.40
21275;DHT22;36472;52.170;20.884;2023-06-01T10:27:57;39.20;27.10
21275;DHT22;36472;52.170;20.884;2023-06-01T10:30:29;39.30;27.80
21275;DHT22;36472;52.170;20.884;2023-06-01T10:32:58;39.40;27.40
21275;DHT22;36472;52.170;20.884;2023-06-01T10:36:01;39.50;28.60
21275;DHT22;36472;52.170;20.884;2023-06-01T10:38:34;39.60;28.10
21275;DHT22;36472;52.170;20.884;2023-06-01T10:41:26;39.70;27.60
21275;DHT22;36472;52.170;20.884;2023-06-01T10:43:59;39.80;27.60
21275;DHT22;36472;52.170;20.884;2023-06-01T10:46:39;39.80;27.90
21275;DHT22;36472;52.170;20.884;2023-06-01T10:49:12;39.70;27.60
21275;DHT22;36472;52.170;20.884;2023-06-01T10:51:41;39.70;28.00
21275;DHT22;36472;52.170;20.884;2023-06-01T10:54:30;39.70;27.00
21275;DHT22;36472;52.170;20.884;2023-06-01T10:57:21;39.60;27.20
21275;DHT22;36472;52.170;20.884;2023-06-01T11:00:11;39.50;27.00
21275;DHT22;36472;52.170;20.884;2023-06-01T11:02:45;39.50;27.00
21275;DHT22;36472;52.170;20.884;2023-06-01T11:05:39;39.50;27.50
21275;DHT22;36472;52.170;20.884;2023-06-01T11:12:03;39.60;28.20
21275;DHT22;36472;52.170;20.884;2023-06-01T11:14:32;39.60;27.80
21275;DHT22;36472;52.170;20.884;2023-06-01T11:17:25;39.60;27.30
21275;DHT22;36472;52.170;20.884;2023-06-01T11:20:02;39.50;27.50
21275;DHT22;36472;52.170;20.884;2023-06-01T11:22:38;39.50;27.70
21275;DHT22;36472;52.170;20.884;2023-06-01T11:25:09;39.50;27.30
21275;DHT22;36472;52.170;20.884;2023-06-01T11:27:44;39.40;27.30
21275;DHT22;36472;52.170;20.884;2023-06-01T11:30:19;39.40;28.20
21275;DHT22;36472;52.170;20.884;2023-06-01T11:32:52;39.30;27.50
21275;DHT22;36472;52.170;20.884;2023-06-01T11:35:25;39.20;27.40
21275;DHT22;36472;52.170;20.884;2023-06-01T11:37:55;39.10;27.70
21275;DHT22;36472;52.170;20.884;2023-06-01T11:40:25;39.10;28.20
21275;DHT22;36472;52.170;20.884;2023-06-01T11:43:00;39.10;28.50
21275;DHT22;36472;52.170;20.884;2023-06-01T11:45:29;39.10;28.20
21275;DHT22;36472;52.170;20.884;2023-06-01T11:48:09;39.00;28.40
21275;DHT22;36472;52.170;20.884;2023-06-01T11:50:46;39.00;28.30
21275;DHT22;36472;52.170;20.884;2023-06-01T11:53:15;39.00;27.90
21275;DHT22;36472;52.170;20.884;2023-06-01T11:55:51;39.00;27.50
21275;DHT22;36472;52.170;20.884;2023-06-01T11:58:23;39.00;28.10
21275;DHT22;36472;52.170;20.884;2023-06-01T12:00:53;39.00;27.70
21275;DHT22;36472;52.170;20.884;2023-06-01T12:03:24;38.90;27.80
21275;DHT22;36472;52.170;20.884;2023-06-01T12:05:55;39.00;27.80
21275;DHT22;36472;52.170;20.884;2023-06-01T12:08:25;39.00;27.70
21275;DHT22;36472;52.170;20.884;2023-06-01T12:10:56;39.00;27.50
21275;DHT22;36472;52.170;20.884;2023-06-01T12:13:27;38.90;27.40
21275;DHT22;36472;52.170;20.884;2023-06-01T12:15:57;38.90;27.60
21275;DHT22;36472;52.170;20.884;2023-06-01T12:18:40;38.80;27.50
21275;DHT22;36472;52.170;20.884;2023-06-01T12:21:10;38.80;27.70
21275;DHT22;36472;52.170;20.884;2023-06-01T12:23:40;38.70;28.90
21275;DHT22;36472;52.170;20.884;2023-06-01T12:26:09;38.70;27.90
21275;DHT22;36472;52.170;20.884;2023-06-01T12:28:49;38.80;27.50
21275;DHT22;36472;52.170;20.884;2023-06-01T12:31:27;38.80;28.00
21275;DHT22;36472;52.170;20.884;2023-06-01T12:33:56;38.80;27.50
21275;DHT22;36472;52.170;20.884;2023-06-01T12:36:30;38.80;27.90
21275;DHT22;36472;52.170;20.884;2023-06-01T12:39:02;38.80;27.80
21275;DHT22;36472;52.170;20.884;2023-06-01T12:41:33;38.80;27.70
21275;DHT22;36472;52.170;20.884;2023-06-01T12:44:04;38.90;28.20
21275;DHT22;36472;52.170;20.884;2023-06-01T12:46:33;38.90;28.40
21275;DHT22;36472;52.170;20.884;2023-06-01T12:49:13;38.90;27.80
21275;DHT22;36472;52.170;20.884;2023-06-01T12:51:44;39.00;26.80
21275;DHT22;36472;52.170;20.884;2023-06-01T12:54:13;39.00;27.10
21275;DHT22;36472;52.170;20.884;2023-06-01T12:56:42;39.00;26.90
21275;DHT22;36472;52.170;20.884;2023-06-01T12:59:12;39.00;26.60
21275;DHT22;36472;52.170;20.884;2023-06-01T13:01:42;39.00;26.80
21275;DHT22;36472;52.170;20.884;2023-06-01T13:04:11;39.00;26.80
21275;DHT22;36472;52.170;20.884;2023-06-01T13:06:40;39.00;27.00
21275;DHT22;36472;52.170;20.884;2023-06-01T13:09:09;39.00;27.20
21275;DHT22;36472;52.170;20.884;2023-06-01T13:11:40;39.00;27.50
21275;DHT22;36472;52.170;20.884;2023-06-01T13:14:09;39.00;27.20
21275;DHT22;36472;52.170;20.884;2023-06-01T13:16:40;39.00;27.50
21275;DHT22;36472;52.170;20.884;2023-06-01T13:19:08;39.00;26.60
21275;DHT22;36472;52.170;20.884;2023-06-01T13:21:37;39.00;26.90
21275;DHT22;36472;52.170;20.884;2023-06-01T13:24:07;39.10;27.20
21275;DHT22;36472;52.170;20.884;2023-06-01T13:26:38;39.10;26.90
21275;DHT22;36472;52.170;20.884;2023-06-01T13:29:07;39.10;26.80
21275;DHT22;36472;52.170;20.884;2023-06-01T13:31:36;39.10;26.40
21275;DHT22;36472;52.170;20.884;2023-06-01T13:34:07;39.10;26.40
21275;DHT22;36472;52.170;20.884;2023-06-01T13:36:36;39.20;26.80
21275;DHT22;36472;52.170;20.884;2023-06-01T13:39:05;39.20;27.00
21275;DHT22;36472;52.170;20.884;2023-06-01T13:41:34;39.20;26.60
21275;DHT22;36472;52.170;20.884;2023-06-01T13:44:03;39.20;26.50
21275;DHT22;36472;52.170;20.884;2023-06-01T13:46:32;39.20;26.70
21275;DHT22;36472;52.170;20.884;2023-06-01T13:49:01;39.30;27.00
21275;DHT22;36472;52.170;20.884;2023-06-01T13:51:32;39.30;27.40
21275;DHT22;36472;52.170;20.884;2023-06-01T13:54:04;39.30;26.70
21275;DHT22;36472;52.170;20.884;2023-06-01T13:56:34;39.40;26.70
21275;DHT22;36472;52.170;20.884;2023-06-01T13:59:03;39.40;26.00
21275;DHT22;36472;52.170;20.884;2023-06-01T14:01:32;39.40;26.10
21275;DHT22;36472;52.170;20.884;2023-06-01T14:04:02;39.50;26.70
21275;DHT22;36472;52.170;20.884;2023-06-01T14:06:33;39.50;26.30
21275;DHT22;36472;52.170;20.884;2023-06-01T14:09:02;39.50;26.30
21275;DHT22;36472;52.170;20.884;2023-06-01T14:11:32;39.60;26.20
21275;DHT22;36472;52.170;20.884;2023-06-01T14:14:00;39.50;26.10
21275;DHT22;36472;52.170;20.884;2023-06-01T14:16:30;39.50;26.20
21275;DHT22;36472;52.170;20.884;2023-06-01T14:18:59;39.50;26.30
21275;DHT22;36472;52.170;20.884;2023-06-01T14:21:28;39.50;26.70
21275;DHT22;36472;52.170;20.884;2023-06-01T14:23:59;39.50;26.60
21275;DHT22;36472;52.170;20.884;2023-06-01T14:26:28;39.50;26.60
21275;DHT22;36472;52.170;20.884;2023-06-01T14:28:57;39.60;27.00
21275;DHT22;36472;52.170;20.884;2023-06-01T14:31:27;39.60;27.00
21275;DHT22;36472;52.170;20.884;2023-06-01T14:33:56;39.60;26.60
21275;DHT22;36472;52.170;20.884;2023-06-01T14:36:25;39.50;26.50
21275;DHT22;36472;52.170;20.884;2023-06-01T14:39:15;39.60;26.60
21275;DHT22;36472;52.170;20.884;2023-06-01T14:41:44;39.50;27.20
21275;DHT22;36472;52.170;20.884;2023-06-01T14:44:13;39.50;27.00
21275;DHT22;36472;52.170;20.884;2023-06-01T14:46:42;39.50;27.30
21275;DHT22;36472;52.170;20.884;2023-06-01T14:49:11;39.50;28.10
21275;DHT22;36472;52.170;20.884;2023-06-01T14:51:40;39.60;27.10
21275;DHT22;36472;52.170;20.884;2023-06-01T14:54:09;39.60;26.70
21275;DHT22;36472;52.170;20.884;2023-06-01T14:56:39;39.70;27.10
21275;DHT22;36472;52.170;20.884;2023-06-01T14:59:08;39.70;27.30
21275;DHT22;36472;52.170;20.884;2023-06-01T15:01:37;39.80;26.70
21275;DHT22;36472;52.170;20.884;2023-06-01T15:04:08;39.80;27.20
21275;DHT22;36472;52.170;20.884;2023-06-01T15:06:37;39.80;27.00
21275;DHT22;36472;52.170;20.884;2023-06-01T15:09:06;39.80;27.10
21275;DHT22;36472;52.170;20.884;2023-06-01T15:11:35;39.70;27.30
21275;DHT22;36472;52.170;20.884;2023-06-01T15:14:05;39.70;27.50
21275;DHT22;36472;52.170;20.884;2023-06-01T15:16:34;39.70;27.50
21275;DHT22;36472;52.170;20.884;2023-06-01T15:19:06;39.80;27.30
21275;DHT22;36472;52.170;20.884;2023-06-01T15:21:35;39.80;27.40
21275;DHT22;36472;52.170;20.884;2023-06-01T15:24:05;39.80;27.40
21275;DHT22;36472;52.170;20.884;2023-06-01T15:26:34;39.80;27.40
21275;DHT22;36472;52.170;20.884;2023-06-01T15:29:04;39.80;27.30
21275;DHT22;36472;52.170;20.884;2023-06-01T15:31:33;39.80;27.20
21275;DHT22;36472;52.170;20.884;2023-06-01T15:34:02;39.80;27.60
21275;DHT22;36472;52.170;20.884;2023-06-01T15:36:32;39.80;27.60
21275;DHT22;36472;52.170;20.884;2023-06-01T15:39:01;39.80;27.60
21275;DHT22;36472;52.170;20.884;2023-06-01T15:41:31;39.90;27.50
21275;DHT22;36472;52.170;20.884;2023-06-01T15:44:00;39.90;27.40
21275;DHT22;36472;52.170;20.884;2023-06-01T15:46:30;39.90;27.60